Time;durP1;ratioP1;P1;durP2;ratioP2;P2;SDS_P1;SDS_P2;PMS_P1;PMS_P2;Temp;Humidity;BMP_temperature;BMP_pressure;BME280_temperature;BME280_humidity;BME280_pressure;Samples;Min_cycle;Max_cycle;Signal;HPM_P1;HPM_P2
2022/09/18 00:01:31;;;;;;;3.63;3.33;;;15.30;76.00;;;;;;4955371;28;20207;-84
2022/09/18 00:04:01;;;;;;;3.33;3.03;;;15.30;76.00;;;;;;4919701;28;20041;-85
2022/09/18 00:06:35;;;;;;;3.80;3.28;;;15.30;76.00;;;;;;4919872;28;20043;-84
2022/09/18 00:09:04;;;;;;;4.07;3.58;;;15.30;76.00;;;;;;4930997;28;20134;-85
2022/09/18 00:11:38;;;;;;;3.72;3.20;;;15.30;76.10;;;;;;4933568;28;20138;-84
2022/09/18 00:14:06;;;;;;;6.82;3.40;;;15.20;76.10;;;;;;4954674;28;20040;-86
2022/09/18 00:16:32;;;;;;;3.50;3.05;;;15.20;76.40;;;;;;4935226;28;20041;-86
2022/09/18 00:18:58;;;;;;;4.75;3.17;;;15.20;76.50;;;;;;4938561;28;20423;-85
2022/09/18 00:21:25;;;;;;;4.18;3.25;;;15.10;76.50;;;;;;4942751;28;20087;-87
2022/09/18 00:23:54;;;;;;;3.72;3.17;;;15.10;76.60;;;;;;4926056;28;20031;-86
2022/09/18 00:26:20;;;;;;;3.28;2.97;;;15.10;76.60;;;;;;4950777;28;20118;-86
2022/09/18 00:28:46;;;;;;;3.20;2.88;;;15.20;76.60;;;;;;4918517;28;20030;-85
2022/09/18 00:31:16;;;;;;;3.65;3.10;;;15.10;76.40;;;;;;4937841;28;20031;-83
2022/09/18 00:33:42;;;;;;;3.90;3.08;;;15.10;76.40;;;;;;4956440;28;20114;-85
2022/09/18 00:36:10;;;;;;;3.95;3.35;;;15.10;76.60;;;;;;4955665;28;20113;-84
2022/09/18 00:38:37;;;;;;;3.55;3.08;;;15.10;76.70;;;;;;4938805;28;20071;-84
2022/09/18 00:41:05;;;;;;;5.38;3.97;;;15.10;76.80;;;;;;4914313;28;20039;-84
2022/09/18 00:43:34;;;;;;;4.00;3.60;;;15.10;76.80;;;;;;4936998;28;20186;-84
2022/09/18 00:46:05;;;;;;;3.58;3.10;;;15.10;76.90;;;;;;4944750;28;20134;-84
2022/09/18 00:49:10;;;;;;;4.28;3.63;;;15.00;76.90;;;;;;4938982;28;20698;-83
2022/09/18 00:51:37;;;;;;;5.18;4.32;;;15.00;77.00;;;;;;4938762;28;20055;-85
2022/09/18 00:54:35;;;;;;;5.75;4.60;;;15.00;76.90;;;;;;4927320;28;20477;-85
2022/09/18 00:57:10;;;;;;;6.80;4.53;;;15.00;77.10;;;;;;4940104;28;20515;-86
2022/09/18 00:59:39;;;;;;;5.85;5.25;;;14.90;77.30;;;;;;4927744;28;20469;-84
2022/09/18 01:02:05;;;;;;;5.95;4.82;;;14.90;77.60;;;;;;4926452;28;20466;-84
2022/09/18 01:04:31;;;;;;;5.63;4.40;;;14.80;77.70;;;;;;4941334;28;20118;-85
2022/09/18 01:07:16;;;;;;;5.57;4.82;;;14.80;78.30;;;;;;4957573;28;20523;-84
2022/09/18 01:10:05;;;;;;;6.10;4.82;;;14.80;77.80;;;;;;4957479;28;20051;-84
2022/09/18 01:12:42;;;;;;;5.15;4.65;;;14.80;77.70;;;;;;4958261;28;20122;-84
2022/09/18 01:15:15;;;;;;;6.03;5.15;;;14.80;77.80;;;;;;4926116;28;20122;-84
2022/09/18 01:17:48;;;;;;;5.55;4.53;;;14.70;77.90;;;;;;4948142;28;20118;-84
2022/09/18 01:20:28;;;;;;;5.43;4.80;;;14.80;77.90;;;;;;4941953;28;20022;-85
2022/09/18 01:23:03;;;;;;;5.80;4.30;;;14.80;77.90;;;;;;4962284;28;20027;-85
2022/09/18 01:25:36;;;;;;;6.57;4.77;;;14.80;77.90;;;;;;4942032;28;20130;-85
2022/09/18 01:28:41;;;;;;;5.30;4.57;;;14.80;77.90;;;;;;4938914;28;20291;-85
2022/09/18 01:31:18;;;;;;;5.75;4.47;;;14.70;78.00;;;;;;4926392;28;20035;-85
2022/09/18 01:33:55;;;;;;;6.97;4.43;;;14.70;77.90;;;;;;4964284;28;20035;-85
2022/09/18 01:36:25;;;;;;;5.63;4.90;;;14.70;78.00;;;;;;4946847;28;20396;-84
2022/09/18 01:38:59;;;;;;;5.28;4.70;;;14.70;78.00;;;;;;4960303;28;20042;-85
2022/09/18 01:41:27;;;;;;;5.72;4.57;;;14.70;78.10;;;;;;4946209;28;20406;-87
2022/09/18 01:44:16;;;;;;;5.72;4.40;;;14.70;78.10;;;;;;4926444;28;20495;-86
2022/09/18 01:46:43;;;;;;;6.25;4.68;;;14.60;78.20;;;;;;4937961;28;20035;-85
2022/09/18 01:49:17;;;;;;;6.90;4.65;;;14.60;78.20;;;;;;4942177;28;20039;-86
2022/09/18 01:51:57;;;;;;;7.45;5.03;;;14.60;78.30;;;;;;4941065;28;20031;-84
2022/09/18 01:54:29;;;;;;;6.60;4.88;;;14.60;78.30;;;;;;4925981;28;20031;-84
2022/09/18 01:57:27;;;;;;;6.35;4.47;;;14.60;78.30;;;;;;4925539;28;20478;-85
2022/09/18 02:00:09;;;;;;;6.68;4.63;;;14.50;78.30;;;;;;4930105;28;20058;-84
2022/09/18 02:03:02;;;;;;;6.18;5.43;;;14.60;78.40;;;;;;4956291;28;20035;-85
2022/09/18 02:05:39;;;;;;;5.38;4.85;;;14.60;78.10;;;;;;4941564;28;20047;-84
2022/09/18 02:08:15;;;;;;;5.20;4.55;;;14.60;78.10;;;;;;4940833;28;20027;-86
2022/09/18 02:10:51;;;;;;;9.68;4.63;;;14.60;78.20;;;;;;4940648;28;20039;-84
2022/09/18 02:13:23;;;;;;;6.45;4.38;;;14.60;78.40;;;;;;4958350;28;20058;-87
2022/09/18 02:15:52;;;;;;;5.43;4.28;;;14.50;78.40;;;;;;4942441;28;20082;-85
2022/09/18 02:18:28;;;;;;;5.85;4.78;;;14.50;78.30;;;;;;4941549;28;20406;-85
2022/09/18 02:20:57;;;;;;;4.95;4.20;;;14.60;78.20;;;;;;4925479;28;20144;-85
2022/09/18 02:23:27;;;;;;;4.70;4.18;;;14.50;78.00;;;;;;4948268;28;20043;-84
2022/09/18 02:26:03;;;;;;;5.38;3.72;;;14.60;78.00;;;;;;4941710;28;20027;-82
2022/09/18 02:28:30;;;;;;;5.18;3.80;;;14.60;77.80;;;;;;4940926;28;20050;-83
2022/09/18 02:30:58;;;;;;;9.07;4.70;;;14.60;77.80;;;;;;4939036;28;20140;-84
2022/09/18 02:33:25;;;;;;;5.95;3.95;;;14.70;77.70;;;;;;4933154;28;20050;-85
2022/09/18 02:36:33;;;;;;;5.15;4.15;;;14.60;77.70;;;;;;4923326;28;20039;-86
2022/09/18 02:39:03;;;;;;;5.10;4.15;;;14.60;77.70;;;;;;4866039;29;20085;-81
2022/09/18 02:42:14;;;;;;;5.22;4.15;;;14.60;77.60;;;;;;4881225;29;20093;-82
2022/09/18 02:45:07;;;;;;;5.90;4.20;;;14.60;77.60;;;;;;4862148;29;20043;-85
2022/09/18 02:48:05;;;;;;;5.28;3.60;;;14.60;77.50;;;;;;4885743;29;20177;-82
2022/09/18 02:51:14;;;;;;;4.93;3.97;;;14.60;77.60;;;;;;4891751;29;20048;-86
2022/09/18 02:53:59;;;;;;;5.40;4.10;;;14.60;77.50;;;;;;4899585;29;20137;-86
2022/09/18 02:56:50;;;;;;;5.60;3.95;;;14.60;77.80;;;;;;4866109;29;20397;-85
2022/09/18 02:59:22;;;;;;;4.78;4.30;;;14.50;77.80;;;;;;4881157;29;20032;-85
2022/09/18 03:01:56;;;;;;;6.47;4.18;;;14.50;77.90;;;;;;4881494;29;20043;-84
2022/09/18 03:04:25;;;;;;;5.18;4.50;;;14.50;78.00;;;;;;4880776;29;20041;-84
2022/09/18 03:07:01;;;;;;;5.90;4.00;;;14.40;78.10;;;;;;4898042;29;20083;-88
2022/09/18 03:09:28;;;;;;;4.15;3.78;;;14.40;78.00;;;;;;4870004;29;20036;-86
2022/09/18 03:11:55;;;;;;;4.72;4.22;;;14.50;78.00;;;;;;4844268;29;20040;-86
2022/09/18 03:14:21;;;;;;;3.95;3.55;;;14.50;78.00;;;;;;4898531;29;20036;-87
2022/09/18 03:16:47;;;;;;;7.45;3.90;;;14.50;77.90;;;;;;4953288;28;20054;-83
2022/09/18 03:19:13;;;;;;;5.75;4.13;;;14.50;77.80;;;;;;4936052;28;20537;-83
2022/09/18 03:21:41;;;;;;;5.07;3.88;;;14.50;77.90;;;;;;4921799;28;20030;-83
2022/09/18 03:24:09;;;;;;;5.35;3.92;;;14.50;77.90;;;;;;4952962;28;20047;-83
2022/09/18 03:26:39;;;;;;;5.68;4.25;;;14.50;77.80;;;;;;4936325;28;20036;-83
2022/09/18 03:29:09;;;;;;;4.53;4.00;;;14.50;77.90;;;;;;4954151;28;20042;-83
2022/09/18 03:31:37;;;;;;;5.00;4.22;;;14.50;77.90;;;;;;4950452;28;20387;-83
2022/09/18 03:34:04;;;;;;;4.18;3.78;;;14.40;77.90;;;;;;4933760;28;20090;-78
2022/09/18 03:36:30;;;;;;;4.07;3.70;;;14.40;77.90;;;;;;4952371;28;20066;-81
2022/09/18 03:38:57;;;;;;;4.70;3.92;;;14.40;78.00;;;;;;4955717;28;20507;-80
2022/09/18 03:41:23;;;;;;;5.38;3.85;;;14.40;77.90;;;;;;4944388;28;20566;-79
2022/09/18 03:43:50;;;;;;;6.93;4.63;;;14.50;77.90;;;;;;4935024;28;20162;-79
2022/09/18 03:46:21;;;;;;;4.75;3.70;;;14.50;77.90;;;;;;4954552;28;20511;-84
2022/09/18 03:48:52;;;;;;;4.65;4.22;;;14.50;77.80;;;;;;4939231;28;20126;-82
2022/09/18 03:51:20;;;;;;;4.93;4.13;;;14.50;77.80;;;;;;4929689;28;20550;-82
2022/09/18 03:53:47;;;;;;;4.78;4.13;;;14.50;77.80;;;;;;4956116;28;20050;-81
2022/09/18 03:56:32;;;;;;;4.75;3.85;;;14.50;77.80;;;;;;4941537;28;20039;-77
2022/09/18 03:59:23;;;;;;;6.60;4.47;;;14.50;77.60;;;;;;4939644;28;20054;-78
2022/09/18 04:01:57;;;;;;;5.95;4.78;;;14.50;77.90;;;;;;4939872;28;20397;-79
2022/09/18 04:04:26;;;;;;;5.55;4.22;;;14.40;78.10;;;;;;4955957;28;20030;-78
2022/09/18 04:06:58;;;;;;;5.95;4.32;;;14.40;78.20;;;;;;4955431;28;20047;-79
2022/09/18 04:09:43;;;;;;;5.60;4.05;;;14.40;78.20;;;;;;4956359;28;20039;-79
2022/09/18 04:12:10;;;;;;;5.50;4.68;;;14.40;78.10;;;;;;4957152;28;20118;-79
2022/09/18 04:14:37;;;;;;;6.85;4.60;;;14.50;78.10;;;;;;4971952;28;20039;-79
2022/09/18 04:17:03;;;;;;;6.63;4.40;;;14.50;78.10;;;;;;4944680;28;20050;-79
2022/09/18 04:19:29;;;;;;;5.10;4.00;;;14.50;78.10;;;;;;4939665;28;20999;-79
2022/09/18 04:21:56;;;;;;;7.10;4.97;;;14.50;78.10;;;;;;4954998;28;20086;-79
2022/09/18 04:24:22;;;;;;;5.43;4.63;;;14.50;78.10;;;;;;4937697;28;20047;-79
2022/09/18 04:26:48;;;;;;;5.80;4.63;;;14.50;78.10;;;;;;4955779;28;20089;-78
2022/09/18 04:29:16;;;;;;;7.65;4.90;;;14.50;78.20;;;;;;4955643;28;20117;-79
2022/09/18 04:31:42;;;;;;;5.40;4.65;;;14.50;78.10;;;;;;4957547;28;20114;-80
2022/09/18 04:34:12;;;;;;;6.25;4.45;;;14.60;78.20;;;;;;4958943;28;20074;-80
2022/09/18 04:36:38;;;;;;;7.53;4.55;;;14.50;78.10;;;;;;4942888;28;20039;-79
2022/09/18 04:39:06;;;;;;;5.43;4.22;;;14.60;78.20;;;;;;4943277;28;20041;-79
2022/09/18 04:41:34;;;;;;;6.63;4.75;;;14.60;78.20;;;;;;4959103;28;20043;-79
2022/09/18 04:44:02;;;;;;;6.55;5.22;;;14.60;78.20;;;;;;4942117;28;20066;-79
2022/09/18 04:46:28;;;;;;;8.55;5.53;;;14.60;78.10;;;;;;4958882;28;20031;-79
2022/09/18 04:48:54;;;;;;;5.78;4.63;;;14.60;78.20;;;;;;4942466;28;20062;-80
2022/09/18 04:51:23;;;;;;;6.20;4.82;;;14.60;78.20;;;;;;4942006;28;20039;-80
2022/09/18 04:53:49;;;;;;;8.60;5.05;;;14.60;78.20;;;;;;4958855;28;20098;-79
2022/09/18 04:56:16;;;;;;;6.28;4.57;;;14.70;78.30;;;;;;4948443;28;20035;-79
2022/09/18 04:58:46;;;;;;;6.93;4.80;;;14.70;78.30;;;;;;4959502;28;20034;-79
2022/09/18 05:01:12;;;;;;;6.63;5.28;;;14.70;78.20;;;;;;4942450;28;20462;-78
2022/09/18 05:03:40;;;;;;;5.47;4.88;;;14.70;78.20;;;;;;4942098;28;20039;-80
2022/09/18 05:06:10;;;;;;;6.78;4.55;;;14.70;78.20;;;;;;4942683;28;20059;-78
2022/09/18 05:08:36;;;;;;;6.95;4.82;;;14.70;78.10;;;;;;4943037;28;20045;-79
2022/09/18 05:11:03;;;;;;;4.93;4.40;;;14.80;78.10;;;;;;4959018;28;20046;-79
2022/09/18 05:13:31;;;;;;;8.20;4.60;;;14.70;78.60;;;;;;4931101;28;20038;-78
2022/09/18 05:16:03;;;;;;;7.05;4.28;;;14.80;78.10;;;;;;4961045;28;20518;-78
2022/09/18 05:18:30;;;;;;;5.00;4.03;;;14.90;78.00;;;;;;4939377;28;21355;-79
2022/09/18 05:21:01;;;;;;;9.23;5.10;;;14.90;77.90;;;;;;4926517;28;20039;-79
2022/09/18 05:23:27;;;;;;;6.85;4.72;;;15.00;77.90;;;;;;4925757;28;20031;-80
2022/09/18 05:25:55;;;;;;;5.13;4.30;;;15.20;78.00;;;;;;4942379;28;20023;-81
2022/09/18 05:28:21;;;;;;;5.75;4.43;;;15.30;77.80;;;;;;4958595;28;20058;-80
2022/09/18 05:30:50;;;;;;;5.38;4.10;;;15.40;77.60;;;;;;4943149;28;20577;-79
2022/09/18 05:33:16;;;;;;;6.57;4.40;;;15.50;76.80;;;;;;4958795;28;20043;-80
2022/09/18 05:35:42;;;;;;;5.50;4.03;;;15.70;77.10;;;;;;4957301;28;20050;-79
2022/09/18 05:38:10;;;;;;;6.47;4.25;;;15.80;76.90;;;;;;4958103;28;20026;-79
2022/09/18 05:40:40;;;;;;;5.53;4.15;;;15.90;76.70;;;;;;4958302;28;20461;-79
2022/09/18 05:43:08;;;;;;;4.65;3.33;;;16.00;76.50;;;;;;4957572;28;20066;-79
2022/09/18 05:45:35;;;;;;;7.22;3.92;;;16.20;76.30;;;;;;4940770;28;20530;-78
2022/09/18 05:48:12;;;;;;;7.65;3.90;;;16.20;76.10;;;;;;4951454;28;20054;-78
2022/09/18 05:50:39;;;;;;;5.20;3.40;;;16.40;75.90;;;;;;4957829;28;20035;-79
2022/09/18 05:53:12;;;;;;;5.38;3.75;;;16.40;75.80;;;;;;4945903;28;20533;-79
2022/09/18 05:55:58;;;;;;;5.60;3.75;;;16.50;75.90;;;;;;4957213;28;20066;-81
2022/09/18 05:58:24;;;;;;;7.05;3.78;;;16.50;75.80;;;;;;4924726;28;20071;-81
2022/09/18 06:00:56;;;;;;;5.95;4.05;;;16.50;75.80;;;;;;4926143;28;20030;-80
2022/09/18 06:03:27;;;;;;;4.20;3.45;;;16.50;76.00;;;;;;4925765;28;20042;-80
2022/09/18 06:05:54;;;;;;;5.82;3.90;;;16.50;76.10;;;;;;4956641;28;20044;-81
2022/09/18 06:08:21;;;;;;;5.43;3.75;;;16.50;76.10;;;;;;4941575;28;20153;-81
2022/09/18 06:10:47;;;;;;;5.47;3.75;;;16.60;76.10;;;;;;4957053;28;20031;-80
2022/09/18 06:13:17;;;;;;;6.53;4.40;;;16.60;76.10;;;;;;4958449;28;20038;-79
2022/09/18 06:15:48;;;;;;;8.20;4.78;;;16.60;76.20;;;;;;4956337;28;20027;-81
2022/09/18 06:18:15;;;;;;;9.55;5.05;;;16.60;76.30;;;;;;4941350;28;20090;-80
2022/09/18 06:20:43;;;;;;;7.55;5.38;;;16.50;76.30;;;;;;4941986;28;20066;-82
2022/09/18 06:23:09;;;;;;;7.55;5.10;;;16.60;76.40;;;;;;4957032;28;20034;-81
2022/09/18 06:26:03;;;;;;;11.32;5.03;;;16.60;76.40;;;;;;4938279;28;20532;-80
2022/09/18 06:28:31;;;;;;;5.97;5.18;;;16.60;76.40;;;;;;4940730;28;20047;-79
2022/09/18 06:31:00;;;;;;;7.47;4.88;;;16.70;76.50;;;;;;4942230;28;20034;-79
2022/09/18 06:33:35;;;;;;;11.13;5.22;;;16.80;76.40;;;;;;4972969;28;20082;-78
2022/09/18 06:36:05;;;;;;;7.10;4.90;;;16.90;76.20;;;;;;4964068;28;20036;-79
2022/09/18 06:38:40;;;;;;;6.35;4.80;;;17.00;76.00;;;;;;4960597;28;20150;-90
2022/09/18 06:41:07;;;;;;;5.97;4.78;;;17.00;75.90;;;;;;4962258;28;20038;-92
2022/09/18 06:44:02;;;;;;;6.03;4.70;;;17.00;76.00;;;;;;4952135;28;20038;-93
2022/09/18 06:46:36;;;;;;;7.07;4.90;;;17.00;76.00;;;;;;4967812;28;20520;-92
2022/09/18 06:49:25;;;;;;;8.45;4.90;;;17.00;76.10;;;;;;4945764;28;20090;-90
2022/09/18 06:51:51;;;;;;;5.97;4.85;;;17.00;76.10;;;;;;4934464;28;20512;-90
2022/09/18 06:54:17;;;;;;;6.22;4.60;;;17.00;76.10;;;;;;4937449;28;20039;-89
2022/09/18 06:56:45;;;;;;;5.20;4.70;;;17.00;76.10;;;;;;4954898;28;20073;-89
2022/09/18 06:59:12;;;;;;;6.10;4.72;;;17.00;76.10;;;;;;4925530;28;20118;-88
2022/09/18 07:01:39;;;;;;;6.45;4.97;;;17.00;76.10;;;;;;4963579;28;20185;-86
2022/09/18 07:04:13;;;;;;;6.00;4.60;;;17.00;76.10;;;;;;4943241;28;20520;-84
2022/09/18 07:06:44;;;;;;;7.78;4.63;;;17.00;76.10;;;;;;4971868;28;20077;-85
2022/09/18 07:09:11;;;;;;;6.85;4.85;;;17.00;76.10;;;;;;4939514;28;20070;-85
2022/09/18 07:12:06;;;;;;;5.88;4.25;;;17.00;76.00;;;;;;4952171;28;20039;-84
2022/09/18 07:14:43;;;;;;;6.28;4.53;;;17.10;76.10;;;;;;4954050;28;20042;-84
2022/09/18 07:17:12;;;;;;;4.40;3.95;;;17.10;76.10;;;;;;4947403;28;20042;-83
2022/09/18 07:19:38;;;;;;;5.68;4.30;;;17.10;76.10;;;;;;4955478;28;20134;-84
2022/09/18 07:22:06;;;;;;;5.10;3.95;;;17.10;76.10;;;;;;4939873;28;20037;-82
2022/09/18 07:24:37;;;;;;;5.85;4.30;;;17.20;76.10;;;;;;4941389;28;20018;-85
2022/09/18 07:27:14;;;;;;;5.00;3.95;;;17.30;76.70;;;;;;4955847;28;20312;-86
2022/09/18 07:29:48;;;;;;;6.55;3.97;;;17.40;76.00;;;;;;4940646;28;20042;-86
2022/09/18 07:32:14;;;;;;;4.72;3.80;;;17.40;76.00;;;;;;4944160;28;20036;-85
2022/09/18 07:34:46;;;;;;;4.53;4.00;;;17.50;76.00;;;;;;4954162;28;20122;-86
2022/09/18 07:37:20;;;;;;;4.82;4.10;;;17.50;75.90;;;;;;4947625;28;20031;-86
2022/09/18 07:39:55;;;;;;;4.70;4.13;;;17.50;75.90;;;;;;4936893;29;20451;-86
2022/09/18 07:43:48;;;;;;;6.20;4.18;;;17.60;76.00;;;;;;4935847;28;20038;-88
2022/09/18 07:46:17;;;;;;;6.82;4.25;;;17.60;75.90;;;;;;4878606;29;20052;-87
2022/09/18 07:49:06;;;;;;;5.78;3.83;;;17.70;75.90;;;;;;4864457;29;20048;-89
2022/09/18 07:51:35;;;;;;;6.45;4.30;;;17.60;76.00;;;;;;4866323;29;20159;-85
2022/09/18 07:54:01;;;;;;;6.05;4.50;;;17.70;76.40;;;;;;4885057;29;20135;-85
2022/09/18 07:56:51;;;;;;;5.18;3.83;;;17.70;76.90;;;;;;4888597;29;20043;-85
2022/09/18 07:59:21;;;;;;;4.82;3.72;;;17.70;76.60;;;;;;4891660;29;20542;-85
2022/09/18 08:01:54;;;;;;;6.70;4.45;;;17.70;76.40;;;;;;4878362;29;20183;-85
2022/09/18 08:04:23;;;;;;;4.70;4.20;;;17.70;76.20;;;;;;4868910;29;20036;-88
2022/09/18 08:07:03;;;;;;;5.68;3.97;;;17.70;76.20;;;;;;4870966;29;20179;-87
2022/09/18 08:09:47;;;;;;;5.40;4.45;;;17.70;76.00;;;;;;4886668;29;20044;-86
2022/09/18 08:12:45;;;;;;;6.70;4.50;;;17.80;76.00;;;;;;4874929;29;20044;-85
2022/09/18 08:15:41;;;;;;;5.15;4.45;;;17.80;75.90;;;;;;4858717;29;20938;-84
2022/09/18 08:18:20;;;;;;;5.45;4.57;;;17.80;75.90;;;;;;4885907;29;20067;-83
2022/09/18 08:21:01;;;;;;;5.50;4.35;;;17.80;75.80;;;;;;4870542;29;20037;-84
2022/09/18 08:23:45;;;;;;;4.80;4.40;;;17.80;75.80;;;;;;4927747;28;20039;-83
2022/09/18 08:26:13;;;;;;;6.18;4.25;;;17.80;75.90;;;;;;4943770;28;20085;-83
2022/09/18 08:28:39;;;;;;;5.13;4.13;;;17.80;75.90;;;;;;4958388;28;20113;-84
2022/09/18 08:31:05;;;;;;;5.78;4.65;;;17.80;75.90;;;;;;4959300;28;20511;-83
2022/09/18 08:33:31;;;;;;;6.30;4.97;;;17.80;75.90;;;;;;4943042;28;20121;-84
2022/09/18 08:35:59;;;;;;;7.00;4.55;;;17.80;75.90;;;;;;4942106;28;20418;-83
2022/09/18 08:38:34;;;;;;;5.88;4.93;;;17.80;76.60;;;;;;4943250;28;20027;-86
2022/09/18 08:41:32;;;;;;;6.57;5.13;;;17.80;75.90;;;;;;4879686;29;20028;-84
2022/09/18 08:44:23;;;;;;;6.32;5.40;;;17.80;76.00;;;;;;4868748;29;20524;-84
2022/09/18 08:47:04;;;;;;;7.43;5.72;;;17.80;75.90;;;;;;4857237;29;20036;-85
2022/09/18 08:49:55;;;;;;;8.85;6.05;;;17.80;75.90;;;;;;4878727;29;20592;-85
2022/09/18 08:52:30;;;;;;;9.07;5.85;;;17.80;75.90;;;;;;4861860;29;20040;-86
2022/09/18 08:55:22;;;;;;;7.93;5.57;;;17.80;75.90;;;;;;4853734;29;20032;-87
2022/09/18 08:58:05;;;;;;;8.98;5.43;;;17.80;75.90;;;;;;4878645;29;20080;-87
2022/09/18 09:00:42;;;;;;;7.10;5.55;;;17.80;75.90;;;;;;4868910;29;20040;-85
2022/09/18 09:03:55;;;;;;;8.02;5.57;;;17.80;76.00;;;;;;4853553;29;20060;-85
2022/09/18 09:06:49;;;;;;;7.97;5.43;;;17.80;75.90;;;;;;4860714;29;20504;-85
2022/09/18 09:09:42;;;;;;;6.25;5.10;;;17.80;76.00;;;;;;4873629;29;20044;-85
2022/09/18 09:12:48;;;;;;;10.80;5.88;;;17.80;75.80;;;;;;4863642;29;20029;-85
2022/09/18 09:15:46;;;;;;;5.85;4.57;;;17.80;75.60;;;;;;4813371;29;20174;-86
2022/09/18 09:18:58;;;;;;;6.97;4.82;;;17.80;75.50;;;;;;4812531;29;20173;-86
2022/09/18 09:21:52;;;;;;;5.38;4.47;;;17.80;75.40;;;;;;4811913;29;20468;-82
2022/09/18 09:24:32;;;;;;;7.47;4.88;;;17.80;76.00;;;;;;4811938;29;20050;-83
2022/09/18 09:27:15;;;;;;;7.87;5.27;;;17.70;76.40;;;;;;4811963;29;20095;-83
2022/09/18 09:30:17;;;;;;;4.90;4.05;;;17.80;77.00;;;;;;4811269;29;20362;-81
2022/09/18 09:33:22;;;;;;;8.25;4.57;;;17.80;77.00;;;;;;4801025;29;20107;-83
2022/09/18 09:36:25;;;;;;;5.30;4.60;;;17.80;77.10;;;;;;4808208;29;20035;-84
2022/09/18 09:39:25;;;;;;;5.68;4.40;;;17.80;77.10;;;;;;4785301;29;20039;-84
2022/09/18 09:42:06;;;;;;;5.22;4.00;;;17.80;77.20;;;;;;4801430;29;20423;-85
2022/09/18 09:44:40;;;;;;;7.53;4.10;;;17.80;77.30;;;;;;4796140;29;20062;-84
2022/09/18 09:47:30;;;;;;;6.35;4.45;;;17.80;77.30;;;;;;4800883;29;20929;-81
2022/09/18 09:50:31;;;;;;;4.68;4.15;;;17.90;77.40;;;;;;4801032;29;20042;-81
2022/09/18 09:53:02;;;;;;;5.55;4.05;;;17.90;77.40;;;;;;4861013;29;20103;-84
2022/09/18 09:56:05;;;;;;;6.80;3.97;;;17.90;77.40;;;;;;4888962;29;20041;-85
2022/09/18 09:58:40;;;;;;;5.20;4.60;;;17.90;77.50;;;;;;4849368;29;20129;-82
2022/09/18 10:01:33;;;;;;;5.10;4.35;;;17.90;77.50;;;;;;4833637;29;20430;-83
2022/09/18 10:04:05;;;;;;;6.57;3.80;;;17.90;77.40;;;;;;4849252;29;20960;-82
2022/09/18 10:06:46;;;;;;;5.70;4.10;;;17.90;77.10;;;;;;4831661;29;20718;-79
2022/09/18 10:09:32;;;;;;;5.93;4.25;;;17.90;77.00;;;;;;4856895;29;20104;-87
2022/09/18 10:12:15;;;;;;;5.55;4.10;;;17.90;77.20;;;;;;4903743;29;20036;-86
2022/09/18 10:14:47;;;;;;;5.13;4.57;;;17.90;77.60;;;;;;4909877;29;20036;-91
2022/09/18 10:17:17;;;;;;;5.72;4.80;;;17.90;77.20;;;;;;4921819;29;20032;-82
2022/09/18 10:19:43;;;;;;;5.47;4.05;;;18.00;77.00;;;;;;4901857;29;20034;-80
2022/09/18 10:22:13;;;;;;;4.38;3.83;;;17.90;77.10;;;;;;4901152;29;20032;-80
2022/09/18 10:24:52;;;;;;;5.45;3.70;;;17.90;77.30;;;;;;4905726;29;20028;-82
2022/09/18 10:27:18;;;;;;;4.88;3.75;;;17.90;77.30;;;;;;4910838;29;20469;-87
2022/09/18 10:29:45;;;;;;;5.13;4.43;;;17.90;77.60;;;;;;4902543;29;20618;-80
2022/09/18 10:32:37;;;;;;;4.88;4.40;;;17.90;77.60;;;;;;4900725;29;20046;-83
2022/09/18 10:35:25;;;;;;;6.10;4.18;;;18.00;77.40;;;;;;4924837;28;20039;-81
2022/09/18 10:37:51;;;;;;;5.07;4.10;;;17.90;77.10;;;;;;4923758;28;20046;-84
2022/09/18 10:40:32;;;;;;;6.50;4.85;;;18.00;77.00;;;;;;4941347;28;20089;-80
2022/09/18 10:43:00;;;;;;;6.43;5.22;;;17.90;76.60;;;;;;4946649;28;20039;-80
2022/09/18 10:45:30;;;;;;;7.82;5.13;;;17.90;76.30;;;;;;4939274;28;20040;-81
2022/09/18 10:48:15;;;;;;;5.13;4.63;;;17.80;76.20;;;;;;4927376;28;20032;-83
2022/09/18 10:51:14;;;;;;;8.18;4.63;;;17.80;76.10;;;;;;4945486;28;20419;-82
2022/09/18 10:53:44;;;;;;;5.35;4.30;;;17.70;76.40;;;;;;4926220;28;20045;-83
2022/09/18 10:56:27;;;;;;;4.40;4.00;;;17.70;76.30;;;;;;4956070;28;20050;-84
2022/09/18 10:58:56;;;;;;;6.25;3.95;;;17.60;76.40;;;;;;4955239;28;20418;-81
2022/09/18 11:01:24;;;;;;;4.40;4.00;;;17.60;76.60;;;;;;4955015;28;20031;-82
2022/09/18 11:04:04;;;;;;;6.63;5.13;;;17.60;76.60;;;;;;4957137;28;20441;-80
2022/09/18 11:06:36;;;;;;;5.40;4.10;;;17.50;76.50;;;;;;4945168;28;20051;-82
2022/09/18 11:09:35;;;;;;;6.40;4.60;;;17.50;76.70;;;;;;4959194;28;20114;-82
2022/09/18 11:12:01;;;;;;;5.22;4.70;;;17.50;77.00;;;;;;4939105;28;20035;-81
2022/09/18 11:14:39;;;;;;;5.30;4.78;;;17.40;77.00;;;;;;4929600;28;20074;-82
2022/09/18 11:17:31;;;;;;;5.28;4.50;;;17.30;77.40;;;;;;4932993;29;20060;-84
2022/09/18 11:20:02;;;;;;;5.47;4.82;;;17.30;77.60;;;;;;4928543;28;20043;-83
2022/09/18 11:23:23;;;;;;;6.93;5.13;;;17.30;77.70;;;;;;4961379;28;20502;-84
2022/09/18 11:26:19;;;;;;;6.82;5.20;;;17.30;77.80;;;;;;4949480;28;20094;-84
2022/09/18 11:28:58;;;;;;;5.90;5.30;;;17.30;78.00;;;;;;4933301;29;20040;-81
2022/09/18 11:31:31;;;;;;;6.05;5.18;;;17.20;78.00;;;;;;4939674;28;20090;-81
2022/09/18 11:33:58;;;;;;;8.23;5.90;;;17.20;78.10;;;;;;4956262;28;20542;-80
2022/09/18 11:36:32;;;;;;;6.65;5.95;;;17.20;78.20;;;;;;4963531;28;20062;-80
2022/09/18 11:39:01;;;;;;;8.88;6.88;;;17.20;78.30;;;;;;4927912;29;20102;-82
2022/09/18 11:41:35;;;;;;;10.35;7.55;;;17.20;78.30;;;;;;4959306;28;20495;-82
2022/09/18 11:44:11;;;;;;;13.13;7.93;;;17.20;78.40;;;;;;4933124;28;20047;-83
2022/09/18 11:46:56;;;;;;;13.20;8.38;;;17.10;78.30;;;;;;4947978;28;20407;-86
2022/09/18 11:49:28;;;;;;;11.98;9.10;;;17.10;78.60;;;;;;4957388;28;20039;-81
2022/09/18 11:51:56;;;;;;;13.48;9.20;;;17.10;78.70;;;;;;4942083;28;20410;-82
2022/09/18 11:54:45;;;;;;;14.82;8.90;;;17.10;78.90;;;;;;4931461;28;20027;-83
2022/09/18 11:57:36;;;;;;;10.35;7.70;;;17.00;79.10;;;;;;4955811;28;20039;-83
2022/09/18 12:00:10;;;;;;;9.70;7.40;;;17.00;79.50;;;;;;4927419;28;20046;-81
2022/09/18 12:03:20;;;;;;;9.18;7.00;;;17.00;79.60;;;;;;4957256;28;20118;-82
2022/09/18 12:06:08;;;;;;;8.15;6.60;;;17.00;79.70;;;;;;4924440;28;20544;-82
2022/09/18 12:09:17;;;;;;;8.32;7.13;;;17.00;80.10;;;;;;4948782;28;20046;-83
2022/09/18 12:12:12;;;;;;;7.00;6.25;;;17.00;80.40;;;;;;4958816;28;20039;-92
2022/09/18 12:15:00;;;;;;;8.60;6.55;;;17.00;80.80;;;;;;4951573;28;20031;-88
2022/09/18 12:17:46;;;;;;;7.40;6.65;;;17.00;81.00;;;;;;4964079;28;20677;-84
2022/09/18 12:20:36;;;;;;;8.30;6.63;;;16.90;81.10;;;;;;4944968;28;20549;-88
2022/09/18 12:23:05;;;;;;;6.65;5.93;;;16.90;81.40;;;;;;4962480;28;20278;-88
2022/09/18 12:26:00;;;;;;;7.05;6.35;;;16.90;81.60;;;;;;4944359;28;20037;-87
2022/09/18 12:28:53;;;;;;;7.57;6.50;;;16.90;81.90;;;;;;4943500;28;20039;-80
2022/09/18 12:31:29;;;;;;;7.38;6.53;;;16.90;82.20;;;;;;4939377;28;20033;-81
2022/09/18 12:34:10;;;;;;;7.50;6.57;;;16.90;82.50;;;;;;4957151;28;20030;-81
2022/09/18 12:36:57;;;;;;;7.55;6.63;;;16.80;82.90;;;;;;4961524;28;20051;-85
2022/09/18 12:40:11;;;;;;;7.30;5.75;;;16.70;82.90;;;;;;4961188;28;20676;-83
2022/09/18 12:42:58;;;;;;;6.32;4.90;;;16.80;83.00;;;;;;4915473;29;20044;-88
2022/09/18 12:45:41;;;;;;;8.90;6.43;;;16.90;83.00;;;;;;4903524;29;20075;-86
2022/09/18 12:48:44;;;;;;;;;;;;;;;;;;;;;
2022/09/18 12:56:27;;;;;;;;;;;;;;;;;;;;;
2022/09/18 13:00:08;;;;;;;6.65;6.05;;;16.80;84.20;;;;;;4826622;29;20049;-88
2022/09/18 13:03:59;;;;;;;;;;;;;;;;;;;;;
2022/09/18 13:07:00;;;;;;;;;;;16.80;84.90;;;;;;4816220;29;20057;-86
2022/09/18 13:10:10;;;;;;;7.07;6.32;;;16.70;85.10;;;;;;4824247;29;19929;-86
2022/09/18 13:17:37;;;;;;;6.22;5.13;;;16.50;85.30;;;;;;4802177;29;20651;-85
2022/09/18 13:20:11;;;;;;;6.18;5.57;;;16.60;85.90;;;;;;4806910;29;20069;-87
2022/09/18 13:22:39;;;;;;;6.00;5.23;;;16.50;85.80;;;;;;4821198;29;20059;-85
2022/09/18 13:25:24;;;;;;;6.15;4.85;;;16.50;86.00;;;;;;4820049;29;20407;-86
2022/09/18 13:27:55;;;;;;;5.18;4.68;;;16.40;86.20;;;;;;4824542;29;20095;-88
2022/09/18 13:31:14;;;;;;;4.97;4.47;;;16.50;86.10;;;;;;4756969;29;20093;-86
2022/09/18 13:34:21;;;;;;;;;;;;;;;;;;;;;
2022/09/18 13:37:06;;;;;;;4.68;4.20;;;16.50;86.60;;;;;;4794165;29;20585;-85
2022/09/18 13:39:33;;;;;;;4.50;4.10;;;16.50;86.40;;;;;;4809600;29;20129;-84
2022/09/18 13:42:07;;;;;;;4.30;3.67;;;16.50;86.20;;;;;;4809409;29;20046;-85
2022/09/18 13:44:37;;;;;;;4.43;3.70;;;16.50;86.20;;;;;;4778640;29;20042;-84
2022/09/18 13:47:14;;;;;;;3.88;3.47;;;16.50;86.10;;;;;;4800474;29;20539;-84
2022/09/18 13:49:54;;;;;;;4.07;3.67;;;16.50;86.10;;;;;;4809705;29;20050;-84
2022/09/18 13:52:32;;;;;;;4.63;4.07;;;16.50;86.00;;;;;;4835093;29;20061;-84
2022/09/18 13:55:25;;;;;;;5.88;3.50;;;16.50;86.00;;;;;;4872778;29;20044;-83